CST,Max TemperatureF,Mean TemperatureF,Min TemperatureF,Max Dew PointF,MeanDew PointF,Min DewpointF,Max Humidity, Mean Humidity, Min Humidity, Max Sea Level PressureIn, Mean Sea Level PressureIn, Min Sea Level PressureIn, Max VisibilityMiles, Mean VisibilityMiles, Min VisibilityMiles, Max Wind SpeedMPH, Mean Wind SpeedMPH, Max Gust SpeedMPH,PrecipitationIn, CloudCover, Events, WindDirDegrees
2012-11-1,39,32,24,36,26,23,100,83,65,30.15,30.10,30.06,10,10,5,16,12,22,0.00,3,,21
2012-11-2,32,28,24,28,26,25,100,87,80,30.13,30.10,30.06,10,10,10,13,9,,0.00,2,,79
2012-11-3,35,34,32,36,32,28,100,98,87,30.22,30.16,30.12,10,7,1,13,7,,0.72,8,Rain-Snow,333
2012-11-4,35,34,32,36,33,32,100,100,100,30.21,30.17,30.13,8,3,0,13,6,,0.01,8,Fog-Rain,13
2012-11-5,39,36,32,39,35,32,100,100,93,30.22,30.06,29.78,10,6,0,23,9,31,0.00,8,Fog-Rain,187
2012-11-6,48,38,28,41,33,28,100,81,54,30.06,29.94,29.80,10,10,10,33,18,43,0.00,3,,305
2012-11-7,48,34,21,36,31,21,100,85,58,30.08,29.96,29.75,10,10,10,20,8,21,0.00,0,,178
2012-11-8,44,38,32,39,33,32,100,89,61,30.10,29.95,29.75,10,10,10,29,13,34,0.00,5,,344
2012-11-9,35,32,28,36,31,28,100,98,87,30.11,29.99,29.80,10,9,3,23,18,30,0.00,8,,41
2012-11-10,39,32,24,39,35,23,100,100,93,29.79,29.59,29.51,10,3,1,30,16,40,0.50,8,Rain-Snow,11
2012-11-11,24,19,14,23,14,10,100,86,73,29.88,29.81,29.66,10,8,1,26,22,34,1.23,7,Rain-Snow,277
2012-11-12,24,17,10,16,11,5,93,78,54,30.19,30.07,29.89,10,10,1,26,19,33,0.33,3,Rain-Snow,272
2012-11-13,32,22,12,32,22,12,100,95,80,30.21,30.18,30.16,10,10,5,14,9,,0.00,1,,189
2012-11-14,44,30,17,37,28,18,100,97,76,30.20,30.12,30.05,10,8,0,16,7,,0.00,1,Fog,189
2012-11-15,35,26,17,30,23,18,100,83,52,30.45,30.33,30.07,10,10,9,18,8,21,0.00,0,,323
2012-11-16,48,32,15,32,24,16,100,78,50,30.44,30.22,30.02,10,10,10,24,12,31,0.00,0,,162
2012-11-17,50,40,30,39,34,30,100,90,62,30.06,30.02,29.96,10,10,6,14,9,,0.00,4,,134
2012-11-18,51,38,24,41,32,25,100,92,62,29.97,29.92,29.86,10,6,0,13,6,,0.00,2,Fog,133
2012-11-19,48,36,24,37,33,25,100,90,62,30.16,30.04,29.87,10,9,2,18,8,17,0.00,0,,306
2012-11-20,57,38,19,37,29,19,100,80,33,30.17,30.00,29.88,10,8,0,24,6,28,0.00,1,Fog,182
2012-11-21,60,44,28,39,34,28,100,81,42,29.89,29.74,29.54,10,10,5,15,7,,0.00,0,,171
2012-11-22,41,30,19,37,28,16,100,89,74,30.30,29.92,29.55,10,9,3,31,15,41,0.09,6,Rain-Snow,309
2012-11-23,19,12,6,14,8,5,92,80,63,30.50,30.41,30.31,10,10,9,26,18,36,0.01,3,Snow,341
2012-11-24,33,22,10,32,18,9,100,77,51,30.31,29.96,29.77,10,10,10,25,11,30,0.00,7,,170
2012-11-25,32,23,14,25,18,7,100,80,55,30.28,30.04,29.92,10,10,10,23,16,28,0.01,8,Snow,311
2012-11-26,26,14,1,14,7,0,92,72,46,30.43,30.32,30.20,10,10,10,17,10,23,0.00,2,Snow,245
2012-11-27,32,21,10,25,20,10,100,86,69,30.25,30.15,30.08,10,10,10,18,11,16,0.00,2,,264
2012-11-28,41,29,17,27,23,18,100,86,53,30.27,30.12,30.00,10,8,0,23,8,26,0.00,3,Fog,192
2012-11-29,21,18,14,21,18,14,100,98,86,30.12,30.08,30.03,10,7,1,22,15,23,0.00,8,,29
2012-11-30,35,28,21,34,26,18,100,95,86,30.12,29.99,29.73,10,7,2,18,10,,0.00,7,,113